createdAt,value
2017-07-11T00:00:14.246Z,0
2017-07-11T00:01:15.652Z,0
2017-07-11T00:02:17.067Z,0
2017-07-11T00:03:18.770Z,0
2017-07-11T00:04:20.169Z,0
2017-07-11T00:05:21.566Z,0
2017-07-11T00:06:23.089Z,0
2017-07-11T00:07:24.494Z,0
2017-07-11T00:08:26.206Z,0
2017-07-11T00:09:27.591Z,0
2017-07-11T00:10:29.279Z,0
2017-07-11T00:11:30.660Z,0
2017-07-11T00:12:32.365Z,0
2017-07-11T00:13:33.791Z,0
2017-07-11T00:14:35.433Z,0
2017-07-11T00:15:36.834Z,0
2017-07-11T00:16:38.522Z,0
2017-07-11T00:17:39.922Z,0
2017-07-11T00:18:41.608Z,0
2017-07-11T00:19:43.008Z,0
2017-07-11T00:20:44.424Z,0
2017-07-11T00:21:45.922Z,0
2017-07-11T00:22:47.336Z,0
2017-07-11T00:23:48.757Z,0
2017-07-11T00:24:50.455Z,0
2017-07-11T00:25:51.854Z,0
2017-07-11T00:26:53.537Z,0
2017-07-11T00:27:54.949Z,0
2017-07-11T00:28:56.621Z,0
2017-07-11T00:29:58.026Z,0
2017-07-11T00:30:59.424Z,0
2017-07-11T00:32:00.840Z,0
2017-07-11T00:33:02.267Z,0
2017-07-11T00:34:03.664Z,0
2017-07-11T00:35:05.307Z,0
2017-07-11T00:36:06.707Z,0
2017-07-11T00:37:08.109Z,0
2017-07-11T00:38:09.789Z,0
2017-07-11T00:39:11.186Z,0
2017-07-11T00:40:12.602Z,0
2017-07-11T00:41:14.111Z,0
2017-07-11T00:42:15.523Z,0
2017-07-11T00:43:17.195Z,0
2017-07-11T00:44:18.596Z,0
2017-07-11T00:45:19.995Z,0
2017-07-11T00:46:21.520Z,0
2017-07-11T00:47:22.918Z,0
2017-07-11T00:48:24.323Z,0
2017-07-11T00:49:25.836Z,0
2017-07-11T00:50:27.238Z,0
2017-07-11T00:51:28.640Z,0
2017-07-11T00:52:30.155Z,0
2017-07-11T00:53:31.555Z,0
2017-07-11T00:54:32.968Z,0
2017-07-11T00:55:34.479Z,0
2017-07-11T00:56:35.879Z,0
2017-07-11T00:57:37.275Z,0
2017-07-11T00:58:38.800Z,0
2017-07-11T00:59:40.198Z,0
2017-07-11T01:00:41.633Z,0
2017-07-11T01:01:43.121Z,0
2017-07-11T01:02:44.545Z,0
2017-07-11T01:03:45.942Z,0
2017-07-11T01:04:47.515Z,0
2017-07-11T01:05:48.937Z,0
2017-07-11T01:06:50.526Z,0
2017-07-11T01:07:51.944Z,0
2017-07-11T01:08:54.212Z,0
2017-07-11T01:09:55.611Z,0
2017-07-11T01:10:57.008Z,0
2017-07-11T01:11:58.545Z,0
2017-07-11T01:12:59.947Z,0
2017-07-11T01:14:01.366Z,0
2017-07-11T01:15:02.868Z,0
2017-07-11T01:16:04.267Z,0
2017-07-11T01:17:05.953Z,0
2017-07-11T01:18:07.405Z,0
2017-07-11T01:19:08.882Z,0
2017-07-11T01:20:10.353Z,0
2017-07-11T01:21:11.787Z,0
2017-07-11T01:22:13.358Z,0
2017-07-11T01:23:14.793Z,0
2017-07-11T01:24:16.187Z,0
2017-07-11T01:25:17.680Z,0
2017-07-11T01:26:19.076Z,0
2017-07-11T01:27:20.560Z,0
2017-07-11T01:28:21.980Z,0
2017-07-11T01:29:23.646Z,0
2017-07-11T01:30:25.040Z,0
2017-07-11T01:31:26.532Z,0
2017-07-11T01:32:27.925Z,0
2017-07-11T01:33:29.405Z,0
2017-07-11T01:34:30.830Z,0
2017-07-11T01:35:32.513Z,0
2017-07-11T01:36:33.907Z,0
2017-07-11T01:37:35.578Z,0
2017-07-11T01:38:37.026Z,0
2017-07-11T01:39:38.664Z,0
2017-07-11T01:40:40.101Z,0
2017-07-11T01:41:41.495Z,0
2017-07-11T01:42:42.984Z,0
2017-07-11T01:43:44.379Z,0
2017-07-11T01:44:45.789Z,0
2017-07-11T01:45:47.305Z,0
2017-07-11T01:46:48.700Z,0
2017-07-11T01:47:50.203Z,0
2017-07-11T01:48:51.603Z,0
2017-07-11T01:49:53.271Z,0
2017-07-11T01:50:54.683Z,0
2017-07-11T01:51:56.103Z,0
2017-07-11T01:52:57.591Z,0
2017-07-11T01:53:58.990Z,0
2017-07-11T01:55:00.387Z,0
2017-07-11T01:56:01.915Z,0
2017-07-11T01:57:03.316Z,0
2017-07-11T01:58:04.793Z,0
2017-07-11T01:59:06.210Z,0
2017-07-11T02:00:07.917Z,0
2017-07-11T02:01:09.317Z,0
2017-07-11T02:02:10.726Z,0
2017-07-11T02:03:12.198Z,0
2017-07-11T02:04:13.610Z,0
2017-07-11T02:05:15.008Z,0
2017-07-11T02:06:16.521Z,0
2017-07-11T02:07:17.923Z,0
2017-07-11T02:08:19.401Z,0
2017-07-11T02:09:20.802Z,0
2017-07-11T02:10:22.282Z,0
2017-07-11T02:11:23.684Z,0
2017-07-11T02:12:25.162Z,0
2017-07-11T02:13:26.562Z,0
2017-07-11T02:14:28.043Z,0
2017-07-11T02:15:29.474Z,0
2017-07-11T02:16:31.128Z,0
2017-07-11T02:17:32.598Z,0
2017-07-11T02:18:34.275Z,0
2017-07-11T02:19:35.613Z,0
2017-07-11T02:20:37.094Z,0
2017-07-11T02:21:38.497Z,0
2017-07-11T02:22:40.240Z,0
2017-07-11T02:23:41.825Z,0
2017-07-11T02:24:43.223Z,0
2017-07-11T02:25:44.625Z,0
2017-07-11T02:26:46.145Z,0
2017-07-11T02:27:47.976Z,0
2017-07-11T02:28:49.641Z,0
2017-07-11T02:29:51.242Z,0
2017-07-11T02:30:52.724Z,0
2017-07-11T02:31:54.130Z,0
2017-07-11T02:32:55.631Z,0
2017-07-11T02:33:57.047Z,0
2017-07-11T02:34:58.444Z,0
2017-07-11T02:35:59.935Z,0
2017-07-11T02:37:01.570Z,0
2017-07-11T02:38:02.984Z,0
2017-07-11T02:39:04.392Z,0
2017-07-11T02:40:05.898Z,0
2017-07-11T02:41:07.305Z,0
2017-07-11T02:42:08.765Z,0
2017-07-11T02:43:10.216Z,0
2017-07-11T02:44:11.612Z,0
2017-07-11T02:45:13.013Z,0
2017-07-11T02:46:14.533Z,0
2017-07-11T02:47:15.992Z,0
2017-07-11T02:48:17.406Z,0
2017-07-11T02:49:19.080Z,0
2017-07-11T02:50:20.514Z,0
2017-07-11T02:51:21.915Z,0
2017-07-11T02:52:23.382Z,0
2017-07-11T02:53:24.818Z,0
2017-07-11T02:54:26.475Z,0
2017-07-11T02:55:27.875Z,0
2017-07-11T02:56:29.286Z,0
2017-07-11T02:57:30.787Z,0
2017-07-11T02:58:32.188Z,0
2017-07-11T02:59:33.592Z,0
2017-07-11T03:00:35.113Z,0
2017-07-11T03:01:36.519Z,0
2017-07-11T03:02:37.917Z,0
2017-07-11T03:03:39.439Z,0
2017-07-11T03:04:40.846Z,0
2017-07-11T03:05:42.312Z,0
2017-07-11T03:06:43.709Z,0
2017-07-11T03:07:45.198Z,0
2017-07-11T03:08:46.611Z,0
2017-07-11T03:09:48.078Z,0
2017-07-11T03:10:49.480Z,0
2017-07-11T03:11:50.955Z,0
2017-07-11T03:12:52.604Z,0
2017-07-11T03:13:54.002Z,0
2017-07-11T03:14:55.433Z,0
2017-07-11T03:15:56.919Z,0
2017-07-11T03:16:58.317Z,0
2017-07-11T03:17:59.720Z,0
2017-07-11T03:19:01.244Z,0
2017-07-11T03:20:02.662Z,0
2017-07-11T03:21:04.119Z,0
2017-07-11T03:22:05.544Z,0
2017-07-11T03:23:06.945Z,0
2017-07-11T03:24:08.459Z,0
2017-07-11T03:25:09.855Z,0
2017-07-11T03:26:19.740Z,0
2017-07-11T03:27:22.906Z,0
2017-07-11T03:28:29.334Z,0
2017-07-11T03:29:30.594Z,0
2017-07-11T03:30:32.049Z,0
2017-07-11T03:31:33.446Z,0
2017-07-11T03:32:34.922Z,0
2017-07-11T03:33:36.324Z,0
2017-07-11T03:34:37.740Z,0
2017-07-11T03:35:39.262Z,0
2017-07-11T03:36:40.664Z,0
2017-07-11T03:37:42.068Z,0
2017-07-11T03:38:43.557Z,0
2017-07-11T03:39:44.959Z,0
2017-07-11T03:40:46.439Z,5
2017-07-11T03:41:47.843Z,5
2017-07-11T03:42:49.257Z,5
2017-07-11T03:43:50.754Z,5
2017-07-11T03:44:52.171Z,5
2017-07-11T03:45:53.573Z,5
2017-07-11T03:46:55.079Z,5
2017-07-11T03:47:56.473Z,5
2017-07-11T03:48:57.875Z,5
2017-07-11T03:49:59.410Z,5
2017-07-11T03:51:00.870Z,5
2017-07-11T03:52:02.295Z,5
2017-07-11T03:53:04.017Z,5
2017-07-11T03:54:05.397Z,5
2017-07-11T03:55:07.022Z,5
2017-07-11T03:56:08.456Z,5
2017-07-11T03:57:09.908Z,10
2017-07-11T03:58:11.539Z,10
2017-07-11T03:59:12.944Z,10
2017-07-11T04:00:14.347Z,10
2017-07-11T04:01:15.857Z,10
2017-07-11T04:02:17.255Z,10
2017-07-11T04:03:18.654Z,10
2017-07-11T04:04:20.435Z,10
2017-07-11T04:05:21.837Z,10
2017-07-11T04:06:23.469Z,10
2017-07-11T04:07:24.870Z,10
2017-07-11T04:08:26.275Z,10
2017-07-11T04:09:27.803Z,15
2017-07-11T04:10:29.203Z,15
2017-07-11T04:11:30.625Z,15
2017-07-11T04:12:32.110Z,15
2017-07-11T04:13:33.527Z,15
2017-07-11T04:14:34.991Z,15
2017-07-11T04:15:36.388Z,15
2017-07-11T04:16:37.898Z,15
2017-07-11T04:17:39.303Z,15
2017-07-11T04:18:40.813Z,15
2017-07-11T04:19:42.298Z,15
2017-07-11T04:20:43.696Z,15
2017-07-11T04:21:45.099Z,15
2017-07-11T04:22:46.529Z,20
2017-07-11T04:23:47.927Z,20
2017-07-11T04:24:49.331Z,20
2017-07-11T04:25:50.832Z,20
2017-07-11T04:26:52.238Z,20
2017-07-11T04:27:53.644Z,20
2017-07-11T04:28:55.156Z,20
2017-07-11T04:29:56.555Z,20
2017-07-11T04:30:58.036Z,20
2017-07-11T04:31:59.435Z,20
2017-07-11T04:33:00.938Z,25
2017-07-11T04:34:02.355Z,25
2017-07-11T04:35:03.826Z,25
2017-07-11T04:36:05.222Z,25
2017-07-11T04:37:06.678Z,25
2017-07-11T04:38:08.083Z,25
2017-07-11T04:39:09.872Z,30
2017-07-11T04:40:11.309Z,30
2017-07-11T04:41:12.714Z,30
2017-07-11T04:42:14.115Z,30
2017-07-11T04:43:15.627Z,30
2017-07-11T04:44:17.027Z,30
2017-07-11T04:45:18.509Z,30
2017-07-11T04:46:19.909Z,30
2017-07-11T04:47:21.393Z,30
2017-07-11T04:48:22.793Z,35
2017-07-11T04:49:24.197Z,35
2017-07-11T04:50:25.709Z,35
2017-07-11T04:51:27.111Z,35
2017-07-11T04:52:28.520Z,35
2017-07-11T04:53:30.031Z,35
2017-07-11T04:54:31.430Z,35
2017-07-11T04:55:32.836Z,35
2017-07-11T04:56:34.354Z,35
2017-07-11T04:57:35.754Z,35
2017-07-11T04:58:37.201Z,40
2017-07-11T04:59:38.672Z,40
2017-07-11T05:00:40.078Z,40
2017-07-11T05:01:41.551Z,40
2017-07-11T05:02:42.958Z,40
2017-07-11T05:03:44.435Z,40
2017-07-11T05:04:45.854Z,40
2017-07-11T05:05:47.316Z,45
2017-07-11T05:06:48.717Z,45
2017-07-11T05:07:50.225Z,45
2017-07-11T05:08:51.624Z,50
2017-07-11T05:09:53.073Z,50
2017-07-11T05:10:54.477Z,55
2017-07-11T05:11:55.955Z,55
2017-07-11T05:12:57.359Z,50
2017-07-11T05:13:58.835Z,55
2017-07-11T05:15:00.240Z,55
2017-07-11T05:16:01.724Z,55
2017-07-11T05:17:03.152Z,55
2017-07-11T05:18:04.597Z,55
2017-07-11T05:19:05.999Z,55
2017-07-11T05:20:07.477Z,55
2017-07-11T05:21:08.887Z,60
2017-07-11T05:22:10.358Z,60
2017-07-11T05:23:11.761Z,60
2017-07-11T05:24:13.238Z,60
2017-07-11T05:25:14.656Z,75
2017-07-11T05:26:16.118Z,85
2017-07-11T05:27:17.517Z,95
2017-07-11T05:28:19.003Z,100
2017-07-11T05:29:20.407Z,100
2017-07-11T05:30:21.810Z,100
2017-07-11T05:31:23.338Z,95
2017-07-11T05:32:24.742Z,110
2017-07-11T05:33:26.150Z,110
2017-07-11T05:34:27.643Z,100
2017-07-11T05:35:29.052Z,110
2017-07-11T05:36:30.526Z,115
2017-07-11T05:37:31.964Z,115
2017-07-11T05:38:33.362Z,105
2017-07-11T05:39:34.849Z,110
2017-07-11T05:40:36.246Z,105
2017-07-11T05:41:37.648Z,105
2017-07-11T05:42:39.106Z,125
2017-07-11T05:43:40.512Z,110
2017-07-11T05:44:41.917Z,110
2017-07-11T05:45:43.384Z,115
2017-07-11T05:46:44.790Z,120
2017-07-11T05:47:46.195Z,105
2017-07-11T05:48:47.789Z,110
2017-07-11T05:49:49.134Z,115
2017-07-11T05:50:50.568Z,115
2017-07-11T05:51:52.053Z,95
2017-07-11T05:52:53.462Z,110
2017-07-11T05:53:54.862Z,105
2017-07-11T05:54:56.348Z,100
2017-07-11T05:55:57.745Z,90
2017-07-11T05:56:59.229Z,90
2017-07-11T05:58:00.633Z,75
2017-07-11T05:59:02.038Z,70
2017-07-11T06:00:03.447Z,70
2017-07-11T06:01:04.856Z,60
2017-07-11T06:02:06.289Z,55
2017-07-11T06:03:07.769Z,40
2017-07-11T06:04:09.171Z,35
2017-07-11T06:05:10.967Z,40
2017-07-11T06:06:12.396Z,40
2017-07-11T06:07:13.798Z,45
2017-07-11T06:08:15.279Z,45
2017-07-11T06:09:16.681Z,60
2017-07-11T06:10:18.159Z,65
2017-07-11T06:11:19.562Z,75
2017-07-11T06:12:21.039Z,75
2017-07-11T06:13:22.512Z,80
2017-07-11T06:14:24.023Z,105
2017-07-11T06:15:25.436Z,95
2017-07-11T06:16:26.904Z,115
2017-07-11T06:17:28.306Z,125
2017-07-11T06:18:29.782Z,130
2017-07-11T06:19:31.188Z,130
2017-07-11T06:20:32.663Z,115
2017-07-11T06:21:34.073Z,130
2017-07-11T06:22:35.544Z,130
2017-07-11T06:23:36.950Z,130
2017-07-11T06:24:38.355Z,135
2017-07-11T06:25:39.865Z,125
2017-07-11T06:26:41.273Z,130
2017-07-11T06:27:42.679Z,135
2017-07-11T06:28:44.187Z,130
2017-07-11T06:29:45.591Z,120
2017-07-11T06:30:47.065Z,115
2017-07-11T06:31:48.468Z,100
2017-07-11T06:32:49.948Z,100
2017-07-11T06:33:51.348Z,105
2017-07-11T06:34:52.828Z,105
2017-07-11T06:35:54.231Z,85
2017-07-11T06:36:55.765Z,80
2017-07-11T06:37:57.170Z,90
2017-07-11T06:38:58.572Z,100
2017-07-11T06:40:00.030Z,90
2017-07-11T06:41:01.429Z,80
2017-07-11T06:42:02.830Z,75
2017-07-11T06:43:04.351Z,75
2017-07-11T06:44:05.753Z,65
2017-07-11T06:45:07.154Z,55
2017-07-11T06:46:08.670Z,45
2017-07-11T06:47:10.109Z,45
2017-07-11T06:48:11.470Z,55
2017-07-11T06:49:12.991Z,70
2017-07-11T06:50:14.392Z,55
2017-07-11T06:51:15.868Z,45
2017-07-11T06:52:17.270Z,40
2017-07-11T06:53:18.747Z,40
2017-07-11T06:54:20.151Z,50
2017-07-11T06:55:21.587Z,55
2017-07-11T06:56:23.071Z,65
2017-07-11T06:57:24.473Z,75
2017-07-11T06:58:25.882Z,95
2017-07-11T06:59:27.401Z,85
2017-07-11T07:00:28.840Z,70
2017-07-11T07:01:30.347Z,75
2017-07-11T07:02:31.698Z,75
2017-07-11T07:03:33.152Z,70
2017-07-11T07:04:34.554Z,70
2017-07-11T07:05:36.045Z,75
2017-07-11T07:06:37.449Z,75
2017-07-11T07:07:38.913Z,75
2017-07-11T07:08:40.322Z,90
2017-07-11T07:09:41.794Z,85
2017-07-11T07:10:43.196Z,70
2017-07-11T07:11:44.674Z,70
2017-07-11T07:12:46.090Z,60
2017-07-11T07:13:52.987Z,60
2017-07-11T07:14:57.890Z,55
2017-07-11T07:15:59.305Z,60
2017-07-11T07:17:01.603Z,60
2017-07-11T07:18:03.005Z,55
2017-07-11T07:19:04.410Z,60
2017-07-11T07:20:05.965Z,70
2017-07-11T07:21:07.363Z,75
2017-07-11T07:22:08.771Z,75
2017-07-11T07:23:10.247Z,75
2017-07-11T07:24:11.650Z,85
2017-07-11T07:25:13.059Z,80
2017-07-11T07:26:14.567Z,75
2017-07-11T07:27:15.970Z,65
2017-07-11T07:28:17.381Z,60
2017-07-11T07:29:18.782Z,70
2017-07-11T07:30:20.185Z,90
2017-07-11T07:31:21.669Z,80
2017-07-11T07:32:23.072Z,65
2017-07-11T07:33:24.474Z,60
2017-07-11T07:34:25.988Z,50
2017-07-11T07:35:27.393Z,55
2017-07-11T07:36:28.802Z,55
2017-07-11T07:37:30.308Z,60
2017-07-11T07:38:31.712Z,80
2017-07-11T07:39:33.189Z,95
2017-07-11T07:40:34.593Z,100
2017-07-11T07:41:35.994Z,100
2017-07-11T07:42:37.513Z,120
2017-07-11T07:43:38.914Z,110
2017-07-11T07:44:40.316Z,100
2017-07-11T07:45:42.753Z,85
2017-07-11T07:46:44.150Z,80
2017-07-11T07:47:45.654Z,80
2017-07-11T07:48:47.069Z,100
2017-07-11T07:49:48.571Z,100
2017-07-11T07:50:49.985Z,100
2017-07-11T07:51:51.504Z,95
2017-07-11T07:52:52.915Z,105
2017-07-11T07:53:54.378Z,95
2017-07-11T07:54:55.784Z,95
2017-07-11T07:55:57.254Z,90
2017-07-11T07:56:58.688Z,100
2017-07-11T07:58:00.137Z,125
2017-07-11T07:59:01.545Z,100
2017-07-11T08:00:03.016Z,95
2017-07-11T08:01:04.417Z,90
2017-07-11T08:02:05.898Z,90
2017-07-11T08:03:07.301Z,95
2017-07-11T08:04:08.777Z,95
2017-07-11T08:05:10.185Z,110
2017-07-11T08:06:11.589Z,120
2017-07-11T08:07:13.100Z,110
2017-07-11T08:08:14.505Z,100
2017-07-11T08:09:15.910Z,120
2017-07-11T08:10:17.426Z,140
2017-07-11T08:11:18.942Z,150
2017-07-11T08:12:20.406Z,155
2017-07-11T08:13:21.858Z,165
2017-07-11T08:14:23.287Z,115
2017-07-11T08:15:24.691Z,130
2017-07-11T08:16:26.170Z,125
2017-07-11T08:17:27.576Z,110
2017-07-11T08:18:29.059Z,110
2017-07-11T08:19:30.461Z,90
2017-07-11T08:20:31.924Z,100
2017-07-11T08:21:33.328Z,95
2017-07-11T08:22:34.732Z,100
2017-07-11T08:23:36.245Z,140
2017-07-11T08:24:37.697Z,210
2017-07-11T08:25:39.104Z,165
2017-07-11T08:26:40.570Z,115
2017-07-11T08:27:41.974Z,130
2017-07-11T08:28:43.381Z,125
2017-07-11T08:29:44.886Z,170
2017-07-11T08:30:46.295Z,250
2017-07-11T08:31:47.698Z,210
2017-07-11T08:32:49.210Z,235
2017-07-11T08:33:50.628Z,275
2017-07-11T08:34:52.091Z,185
2017-07-11T08:35:53.498Z,160
2017-07-11T08:36:54.921Z,205
2017-07-11T08:37:56.412Z,180
2017-07-11T08:38:57.817Z,200
2017-07-11T08:39:59.221Z,170
2017-07-11T08:41:01.757Z,165
2017-07-11T08:42:03.163Z,225
2017-07-11T08:43:04.636Z,190
2017-07-11T08:44:06.046Z,145
2017-07-11T08:45:07.518Z,225
2017-07-11T08:46:08.926Z,300
2017-07-11T08:47:10.782Z,345
2017-07-11T08:48:12.187Z,350
2017-07-11T08:49:13.688Z,390
2017-07-11T08:50:15.050Z,365
2017-07-11T08:51:16.457Z,290
2017-07-11T08:52:17.909Z,425
2017-07-11T08:53:19.314Z,390
2017-07-11T08:54:20.724Z,375
2017-07-11T08:55:22.228Z,290
2017-07-11T08:56:23.635Z,410
2017-07-11T08:57:25.044Z,450
2017-07-11T08:58:26.559Z,400
2017-07-11T08:59:27.966Z,425
2017-07-11T09:00:29.373Z,360
2017-07-11T09:01:30.870Z,250
2017-07-11T09:02:32.661Z,375
2017-07-11T09:03:34.161Z,340
2017-07-11T09:04:35.569Z,270
2017-07-11T09:05:37.041Z,425
2017-07-11T09:06:38.448Z,445
2017-07-11T09:07:39.920Z,375
2017-07-11T09:08:41.322Z,385
2017-07-11T09:09:42.806Z,475
2017-07-11T09:10:44.203Z,390
2017-07-11T09:11:45.684Z,565
2017-07-11T09:12:47.111Z,500
2017-07-11T09:13:48.942Z,430
2017-07-11T09:14:50.351Z,475
2017-07-11T09:15:51.855Z,510
2017-07-11T09:16:53.261Z,555
2017-07-11T09:17:54.740Z,565
2017-07-11T09:18:56.176Z,605
2017-07-11T09:19:57.583Z,820
2017-07-11T09:20:58.990Z,580
2017-07-11T09:22:00.506Z,410
2017-07-11T09:23:01.912Z,355
2017-07-11T09:24:03.323Z,325
2017-07-11T09:25:04.818Z,655
2017-07-11T09:26:06.220Z,305
2017-07-11T09:27:07.633Z,255
2017-07-11T09:28:09.137Z,280
2017-07-11T09:29:10.544Z,355
2017-07-11T09:30:12.043Z,325
2017-07-11T09:31:13.446Z,300
2017-07-11T09:32:14.852Z,350
2017-07-11T09:33:16.338Z,265
2017-07-11T09:34:17.743Z,235
2017-07-11T09:35:19.152Z,395
2017-07-11T09:36:20.661Z,445
2017-07-11T09:37:22.064Z,2280
2017-07-11T09:38:23.473Z,1985
2017-07-11T09:39:25.000Z,470
2017-07-11T09:40:26.411Z,1295
2017-07-11T09:41:27.820Z,450
2017-07-11T09:42:29.302Z,425
2017-07-11T09:43:30.705Z,275
2017-07-11T09:44:32.117Z,210
2017-07-11T09:45:33.640Z,185
2017-07-11T09:46:35.050Z,800
2017-07-11T09:47:36.504Z,1660
2017-07-11T09:48:37.942Z,230
2017-07-11T09:49:39.413Z,345
2017-07-11T09:50:40.825Z,330
2017-07-11T09:51:42.268Z,340
2017-07-11T09:52:43.676Z,380
2017-07-11T09:53:45.141Z,665
2017-07-11T09:54:46.546Z,450
2017-07-11T09:55:48.023Z,530
2017-07-11T09:56:49.435Z,595
2017-07-11T09:57:50.845Z,205
2017-07-11T09:58:52.346Z,275
2017-07-11T09:59:53.753Z,665
2017-07-11T10:00:55.166Z,1205
2017-07-11T10:01:56.665Z,535
2017-07-11T10:02:58.073Z,325
2017-07-11T10:03:59.551Z,725
2017-07-11T10:05:00.957Z,1510
2017-07-11T10:06:02.428Z,2265
2017-07-11T10:07:03.837Z,860
2017-07-11T10:08:05.311Z,2140
2017-07-11T10:09:06.721Z,2020
2017-07-11T10:10:08.193Z,1380
2017-07-11T10:11:09.605Z,1060
2017-07-11T10:12:11.070Z,805
2017-07-11T10:13:12.477Z,730
2017-07-11T10:14:13.892Z,720
2017-07-11T10:15:15.344Z,740
2017-07-11T10:16:16.724Z,785
2017-07-11T10:17:18.134Z,810
2017-07-11T10:18:19.554Z,1190
2017-07-11T10:19:20.964Z,690
2017-07-11T10:20:22.377Z,890
2017-07-11T10:21:23.788Z,340
2017-07-11T10:22:25.204Z,2785
2017-07-11T10:23:26.610Z,2750
2017-07-11T10:24:28.029Z,370
2017-07-11T10:25:29.438Z,500
2017-07-11T10:26:30.856Z,775
2017-07-11T10:27:32.265Z,680
2017-07-11T10:28:33.680Z,2030
2017-07-11T10:29:35.090Z,545
2017-07-11T10:30:36.506Z,525
2017-07-11T10:31:37.914Z,385
2017-07-11T10:32:39.332Z,1975
2017-07-11T10:33:40.743Z,495
2017-07-11T10:34:42.181Z,465
2017-07-11T10:35:43.590Z,690
2017-07-11T10:36:45.012Z,270
2017-07-11T10:37:46.422Z,275
2017-07-11T10:38:48.263Z,4200
2017-07-11T10:39:49.675Z,425
2017-07-11T10:40:51.092Z,315
2017-07-11T10:41:52.530Z,1865
2017-07-11T10:42:53.970Z,300
2017-07-11T10:43:55.378Z,725
2017-07-11T10:44:56.842Z,735
2017-07-11T10:45:58.257Z,495
2017-07-11T10:46:59.731Z,280
2017-07-11T10:48:01.140Z,245
2017-07-11T10:49:02.611Z,355
2017-07-11T10:50:04.020Z,2045
2017-07-11T10:51:05.493Z,640
2017-07-11T10:52:06.902Z,635
2017-07-11T10:53:08.324Z,3505
2017-07-11T10:54:09.750Z,3420
2017-07-11T10:55:11.163Z,3575
2017-07-11T10:56:12.567Z,785
2017-07-11T10:57:14.030Z,430
2017-07-11T10:58:15.443Z,2115
2017-07-11T10:59:16.913Z,2210
2017-07-11T11:00:18.329Z,1890
2017-07-11T11:01:19.792Z,380
2017-07-11T11:02:21.204Z,475
2017-07-11T11:03:22.646Z,4495
2017-07-11T11:04:24.113Z,4860
2017-07-11T11:05:25.525Z,510
2017-07-11T11:06:26.941Z,355
2017-07-11T11:07:28.488Z,4065
2017-07-11T11:08:29.848Z,2255
2017-07-11T11:09:31.260Z,4505
2017-07-11T11:10:32.757Z,4720
2017-07-11T11:11:34.171Z,4595
2017-07-11T11:12:35.585Z,4415
2017-07-11T11:13:37.083Z,4630
2017-07-11T11:14:38.492Z,4595
2017-07-11T11:15:39.907Z,3335
2017-07-11T11:16:41.397Z,455
2017-07-11T11:17:42.809Z,170
2017-07-11T11:18:44.222Z,185
2017-07-11T11:19:45.715Z,190
2017-07-11T11:20:47.126Z,330
2017-07-11T11:21:48.598Z,595
2017-07-11T11:22:50.009Z,295
2017-07-11T11:23:51.500Z,275
2017-07-11T11:24:52.930Z,1700
2017-07-11T11:25:54.360Z,775
2017-07-11T11:26:55.772Z,3485
2017-07-11T11:27:57.242Z,2095
2017-07-11T11:28:58.649Z,615
2017-07-11T11:30:00.228Z,3580
2017-07-11T11:31:01.645Z,3810
2017-07-11T11:32:03.129Z,3850
2017-07-11T11:33:04.540Z,2415
2017-07-11T11:34:05.984Z,4045
2017-07-11T11:35:07.403Z,4060
2017-07-11T11:36:08.868Z,3795
2017-07-11T11:37:10.298Z,1000
2017-07-11T11:38:11.741Z,3900
2017-07-11T11:39:13.161Z,450
2017-07-11T11:40:14.574Z,1955
2017-07-11T11:41:16.068Z,4090
2017-07-11T11:42:17.484Z,775
2017-07-11T11:43:18.892Z,715
2017-07-11T11:44:20.390Z,4055
2017-07-11T11:45:21.810Z,3280
2017-07-11T11:46:23.221Z,3115
2017-07-11T11:47:24.709Z,3400
2017-07-11T11:48:26.126Z,3235
2017-07-11T11:49:27.535Z,4065
2017-07-11T11:50:29.028Z,4120
2017-07-11T11:51:30.532Z,4005
2017-07-11T11:52:32.011Z,4185
2017-07-11T11:53:33.425Z,2060
2017-07-11T11:54:34.837Z,425
2017-07-11T11:55:36.332Z,720
2017-07-11T11:56:38.126Z,1370
2017-07-11T11:57:39.543Z,835
2017-07-11T11:58:41.069Z,3670
2017-07-11T11:59:42.500Z,1475
2017-07-11T12:00:43.911Z,720
2017-07-11T12:01:45.321Z,310
2017-07-11T12:02:46.823Z,580
2017-07-11T12:03:48.242Z,450
2017-07-11T12:04:49.652Z,290
2017-07-11T12:05:51.149Z,310
2017-07-11T12:06:52.565Z,275
2017-07-11T12:07:53.990Z,210
2017-07-11T12:08:55.464Z,190
2017-07-11T12:09:56.880Z,150
2017-07-11T12:10:58.363Z,115
2017-07-11T12:11:59.779Z,110
2017-07-11T12:13:01.228Z,115
2017-07-11T12:14:02.642Z,155
2017-07-11T12:15:04.050Z,285
2017-07-11T12:16:05.548Z,250
2017-07-11T12:17:06.962Z,250
2017-07-11T12:18:08.376Z,340
2017-07-11T12:19:09.868Z,610
2017-07-11T12:20:11.281Z,485
2017-07-11T12:21:12.691Z,470
2017-07-11T12:22:14.193Z,3195
2017-07-11T12:23:15.599Z,2405
2017-07-11T12:24:17.012Z,2615
2017-07-11T12:25:18.512Z,1080
2017-07-11T12:26:19.920Z,920
2017-07-11T12:27:21.425Z,655
2017-07-11T12:28:22.801Z,370
2017-07-11T12:29:24.270Z,245
2017-07-11T12:30:25.684Z,265
2017-07-11T12:31:27.151Z,315
2017-07-11T12:32:28.560Z,455
2017-07-11T12:33:30.031Z,1910
2017-07-11T12:34:31.442Z,885
2017-07-11T12:35:32.852Z,670
2017-07-11T12:36:34.350Z,345
2017-07-11T12:37:35.764Z,360
2017-07-11T12:38:37.185Z,260
2017-07-11T12:39:38.673Z,235
2017-07-11T12:40:40.084Z,255
2017-07-11T12:41:41.496Z,220
2017-07-11T12:42:42.905Z,495
2017-07-11T12:43:44.330Z,1160
2017-07-11T12:44:45.740Z,515
2017-07-11T12:45:47.147Z,435
2017-07-11T12:46:48.654Z,385
2017-07-11T12:47:50.065Z,610
2017-07-11T12:48:51.468Z,760
2017-07-11T12:49:52.976Z,435
2017-07-11T12:50:54.382Z,285
2017-07-11T12:51:55.857Z,275
2017-07-11T12:52:57.266Z,400
2017-07-11T12:53:58.735Z,375
2017-07-11T12:55:00.143Z,355
2017-07-11T12:56:01.543Z,450
2017-07-11T12:57:03.059Z,575
2017-07-11T12:58:04.463Z,710
2017-07-11T12:59:05.875Z,615
2017-07-11T13:00:07.381Z,705
2017-07-11T13:01:08.791Z,745
2017-07-11T13:02:10.260Z,420
2017-07-11T13:03:11.683Z,430
2017-07-11T13:04:13.143Z,775
2017-07-11T13:05:14.545Z,700
2017-07-11T13:06:16.042Z,315
2017-07-11T13:07:17.524Z,260
2017-07-11T13:08:19.004Z,490
2017-07-11T13:09:20.419Z,370
2017-07-11T13:10:21.826Z,320
2017-07-11T13:11:23.325Z,320
2017-07-11T13:12:24.731Z,300
2017-07-11T13:13:26.136Z,230
2017-07-11T13:14:27.642Z,170
2017-07-11T13:15:29.054Z,170
2017-07-11T13:16:30.463Z,170
2017-07-11T13:17:31.969Z,160
2017-07-11T13:18:33.393Z,170
2017-07-11T13:19:34.799Z,235
2017-07-11T13:20:36.283Z,320
2017-07-11T13:21:37.695Z,320
2017-07-11T13:22:39.163Z,305
2017-07-11T13:23:40.573Z,320
2017-07-11T13:24:42.045Z,340
2017-07-11T13:25:43.453Z,335
2017-07-11T13:26:44.930Z,320
2017-07-11T13:27:46.335Z,345
2017-07-11T13:28:47.807Z,280
2017-07-11T13:29:49.218Z,315
2017-07-11T13:30:50.691Z,385
2017-07-11T13:31:52.092Z,405
2017-07-11T13:32:53.567Z,395
2017-07-11T13:33:54.978Z,355
2017-07-11T13:34:56.452Z,350
2017-07-11T13:35:57.862Z,305
2017-07-11T13:36:59.335Z,295
2017-07-11T13:38:00.732Z,240
2017-07-11T13:39:02.211Z,180
2017-07-11T13:40:03.997Z,120
2017-07-11T13:41:05.506Z,100
2017-07-11T13:42:06.906Z,140
2017-07-11T13:43:08.381Z,155
2017-07-11T13:44:09.788Z,110
2017-07-11T13:45:11.190Z,95
2017-07-11T13:46:12.699Z,100
2017-07-11T13:47:14.106Z,135
2017-07-11T13:48:15.510Z,210
2017-07-11T13:49:17.029Z,290
2017-07-11T13:50:18.499Z,325
2017-07-11T13:51:19.912Z,285
2017-07-11T13:52:21.341Z,240
2017-07-11T13:53:22.748Z,205
2017-07-11T13:54:24.157Z,180
2017-07-11T13:55:25.663Z,135
2017-07-11T13:56:27.076Z,90
2017-07-11T13:57:28.487Z,70
2017-07-11T13:58:29.981Z,50
2017-07-11T13:59:31.386Z,45
2017-07-11T14:00:32.795Z,50
2017-07-11T14:01:34.301Z,45
2017-07-11T14:02:35.706Z,55
2017-07-11T14:03:37.207Z,65
2017-07-11T14:04:38.611Z,90
2017-07-11T14:05:40.063Z,90
2017-07-11T14:06:41.466Z,60
2017-07-11T14:07:42.944Z,40
2017-07-11T14:08:44.350Z,50
2017-07-11T14:09:45.826Z,55
2017-07-11T14:10:47.227Z,50
2017-07-11T14:11:48.704Z,40
2017-07-11T14:12:50.112Z,50
2017-07-11T14:13:51.585Z,70
2017-07-11T14:14:52.998Z,110
2017-07-11T14:15:54.403Z,115
2017-07-11T14:16:55.947Z,150
2017-07-11T14:17:57.352Z,115
2017-07-11T14:18:58.797Z,85
2017-07-11T14:20:00.227Z,85
2017-07-11T14:21:01.629Z,130
2017-07-11T14:22:03.060Z,190
2017-07-11T14:23:04.651Z,185
2017-07-11T14:24:06.056Z,160
2017-07-11T14:25:07.460Z,180
2017-07-11T14:26:08.973Z,200
2017-07-11T14:27:10.377Z,215